AKST,Max TemperatureF,Mean TemperatureF,Min TemperatureF,Max Dew PointF,MeanDew PointF,Min DewpointF,Max Humidity, Mean Humidity, Min Humidity, Max Sea Level PressureIn, Mean Sea Level PressureIn, Min Sea Level PressureIn, Max VisibilityMiles, Mean VisibilityMiles, Min VisibilityMiles, Max Wind SpeedMPH, Mean Wind SpeedMPH, Max Gust SpeedMPH,PrecipitationIn, CloudCover, Events, WindDirDegrees
2013-11-1,16,13,10,13,11,7,95,88,77,30.14,29.98,29.76,10,8,1,4,1,,0.01,7,Snow,323
2013-11-2,12,9,6,10,6,2,92,84,71,30.14,30.02,29.92,10,10,9,12,3,,0.00,5,Snow,11
2013-11-3,21,12,3,18,10,-1,93,82,70,29.93,29.75,29.58,10,7,0,8,6,,0.02,6,Fog-Snow,354
2013-11-4,27,18,9,25,23,18,100,93,83,29.60,29.51,29.43,6,2,1,5,2,,0.20,8,Snow,358
2013-11-5,26,10,-5,25,15,-9,100,86,68,30.28,29.80,29.52,10,6,1,6,2,,0.08,6,Snow,140
2013-11-6,9,-1,-11,0,-6,-13,87,75,57,30.46,30.39,30.30,10,10,10,12,4,17,0.00,1,,353
2013-11-7,7,-1,-9,-3,-8,-14,83,74,56,30.30,30.14,30.07,10,10,10,12,6,,0.00,1,,343
2013-11-8,12,0,-13,9,-4,-18,92,79,60,30.18,30.07,29.91,10,6,1,7,4,,0.08,5,Snow,358
2013-11-9,36,12,-11,34,19,9,93,89,77,29.95,29.62,29.33,10,3,0,18,6,28,0.31,8,Fog-Rain-Snow,33
2013-11-10,36,26,16,32,22,14,93,83,66,29.78,29.60,29.36,10,8,1,17,10,30,0.03,7,Fog-Rain-Snow,201
2013-11-11,21,11,1,13,8,-1,91,82,71,30.27,30.07,29.74,10,10,7,12,7,20,0.00,2,Snow,188
2013-11-12,3,-4,-11,0,-8,-16,91,80,68,30.31,30.20,29.94,10,8,1,9,4,,0.12,5,Fog-Snow,4
2013-11-13,23,8,-4,21,5,-3,93,85,79,29.98,29.68,29.34,10,2,0,9,6,,0.16,8,Fog-Snow,360
2013-11-14,30,16,0,29,19,-4,93,85,59,30.07,29.61,29.34,10,7,1,20,10,29,0.01,4,Snow,234
2013-11-15,14,-2,-17,-4,-10,-20,87,81,67,30.17,30.11,30.02,10,8,2,6,1,,0.01,6,Fog-Snow,13
2013-11-16,0,-8,-16,-5,-8,-17,90,83,74,30.43,30.26,30.07,10,8,2,5,0,,0.00,8,Fog,154
2013-11-17,-5,-14,-22,-11,-15,-26,87,79,60,30.46,30.40,30.28,10,6,1,6,1,,0.00,7,Fog-Snow,14
2013-11-18,-7,-10,-14,-11,-16,-19,84,76,62,30.35,30.27,30.16,10,8,2,7,2,,0.00,8,Fog-Snow,338
2013-11-19,-8,-22,-36,-17,-26,-35,79,74,62,30.32,30.29,30.27,10,10,10,8,4,,0.00,1,,5
2013-11-20,-25,-30,-36,-31,-33,-36,77,72,59,30.47,30.40,30.23,10,10,10,5,0,,0.00,2,,2
2013-11-21,8,-14,-35,-6,-20,-34,77,67,45,30.45,30.27,29.87,10,10,10,18,5,31,0.00,1,Snow,13
2013-11-22,14,-9,-32,9,3,-6,92,69,35,29.80,29.51,29.35,10,5,1,23,12,38,0.12,8,Fog-Snow,51
2013-11-23,12,2,-8,9,-1,-13,92,86,74,29.95,29.66,29.39,10,6,0,7,1,,0.02,5,Fog-Snow,15
2013-11-24,8,2,-6,5,1,-10,87,81,70,30.18,30.05,29.94,10,4,1,9,5,,0.08,7,Snow,350
2013-11-25,3,-10,-22,-9,-15,-26,86,79,71,30.24,30.21,30.19,10,10,10,9,2,,0.00,1,Snow,353
2013-11-26,-7,-14,-21,-13,-21,-27,83,76,65,30.20,30.19,30.18,10,10,10,6,3,,0.00,1,,4
2013-11-27,-5,-14,-22,-9,-17,-26,84,78,65,30.17,30.01,29.85,10,6,2,6,3,,0.03,6,Snow,350
2013-11-28,-6,-19,-32,-14,-18,-34,84,78,67,30.09,29.95,29.80,10,6,2,6,2,,0.03,6,Snow,167
2013-11-29,-13,-21,-29,-18,-22,-32,84,77,66,30.42,30.25,30.10,10,7,1,4,0,,0.04,6,Snow,170
2013-11-30,-23,-28,-33,-31,-33,-35,77,71,58,30.75,30.65,30.45,10,10,10,5,1,,0.00,1,,2